Terminal Aerodrome Forecast
Issued by NWS Louisville, KY

Home | Current Version | Previous Version | Text Only | Print | Product List | Glossary On
Versions: 1 2 3 4 5 6 7 8 9 10 11 12 13 14 15
000
FTUS43 KLMK 281400 AAA
TAFLEX
TAF AMD
KLEX 281400Z 2814/2912 31012KT P6SM SCT018 BKN025
     FM281600 33012G17KT P6SM VCSH BKN035
     FM290100 34007KT P6SM BKN070=

USA.gov is the U.S. government's official web portal to all federal, state and local government web resources and services.